Edna Bay, Alaska
Current Conditions -  °F | °C
As of 12:53 PM on Thursday 27 Nov 2014 (Local Time) from PAKW Reporting Station
Clear Clear  
Wind Chill: 34°   Ceiling: Unl
Heat Index: 38°   Visibility: 10mi
Dew Point: 23°   Wind: 5mph
Humidity: 55%   Direction: 40°NE
Pressure: 29.74"   Gusts: NA
Location:  55.8158°N, 132.958°W
Report Text: PAKW 272153Z AUTO 04004KT 10SM CLR 03/M05 A2974 RMK AO2 SLP073 T00331050 TSNO $
Loading
Personal Weather Stations






























Interactive Weather Map New forecast layout! Learn more

10-Day Weather Forecast

Advertisements
Track Severe Weather on mobile